Anchialos, Greece

9:22 PM EEST on October 21, 2014 (GMT +0300)
Almiros Air Base | Change Station
CLOSE
Current Station
Airport
Location: Anchialos,
Elevation: 82 ft
Nearby Weather Stations

Elev 82 ft 39.22 °N, 22.79 °E | Updated 32 minutes ago

Clear
Clear
59 °F
Feels Like 59 °F
N
5
Wind Variable Wind from West

Today
High -- | Low -- °F
--% Chance of Precip.
Yesterday
High -- | Low -- °F
Precip. -- in
7:44 AM 6:41 PM
Waning Crescent, 5% visible
Pressure 29.83 in
Visibility -9999.0 miles
Clouds
Dew Point 48 °F
Humidity 67%
Rainfall 0.00 in
Snow Depth Not available.
UV Not available.
Pollen Not available.
Air Quality Not available.
Flu Activity Not available.
METAR LGBL 211750Z 26004KT CAVOK 15/09 Q1010

More Conditions Fewer Conditions

Pressure 29.83 in
Visibility -9999.0 miles
Clouds
Dew Point 48 °F
Humidity 67%
Rainfall 0.00 in
Snow Depth Not available.
UV Not available.
Pollen Not available.
Air Quality Not available.
Flu Activity Not available.
METAR LGBL 211750Z 26004KT CAVOK 15/09 Q1010

More Conditions Fewer Conditions

10-Day Weather Forecast

Almanac

Astronomy

Oct. 21, 2014 Rise Set
Actual Time 7:44 AM EEST 6:41 PM EEST
Civil Twilight 7:17 AM EEST 7:09 PM EEST
Nautical Twilight 6:45 AM EEST 7:40 PM EEST
Astronomical Twilight 6:14 AM EEST 8:11 PM EEST
Moon 5:12 AM EEST 5:25 PM EEST
Length of Visible Light 11h 51m
Length of Day
10h 57m
Tomorrow will be 2m 24s shorter.
Waning Crescent, 5% of the Moon is Illuminated
Today
Waning Crescent
Oct 23
New
Oct 30
First Quarter
Nov 6
Full
Nov 14
Last Quarter

Today's Extremes

Country Highs Country Lows

Community

WunderPhotos

Upload Photos

1,763,738 photos uploaded!

Nearby

Snow Depth

Not available.

Earthquake Activity

City Distance Mag. Time & Date
No recent earthquake activity has been reported nearby.
Minimum magnitude displayed is 2.5.

Coastal Water Temperatures

Place Temperature
No Stations Reporting

Nearby Weather Stations